Time;durP1;ratioP1;P1;durP2;ratioP2;P2;SDS_P1;SDS_P2;PMS_P1;PMS_P2;Temp;Humidity;BMP_temperature;BMP_pressure;BME280_temperature;BME280_humidity;BME280_pressure;Samples;Min_cycle;Max_cycle;Signal;HPM_P1;HPM_P2
2023/06/22 00:01:52;;;;;;;14.07;12.60;;;21.40;99.90;;;;;;4919821;29;20575;-70
2023/06/22 00:04:18;;;;;;;11.90;10.90;;;21.40;99.90;;;;;;4921688;29;20174;-70
2023/06/22 00:06:43;;;;;;;11.40;10.50;;;21.40;99.90;;;;;;4919827;29;20187;-70
2023/06/22 00:09:10;;;;;;;11.87;10.77;;;21.50;99.90;;;;;;4923360;29;20190;-70
2023/06/22 00:11:36;;;;;;;13.93;12.67;;;21.50;99.90;;;;;;4914896;29;20287;-70
2023/06/22 00:14:02;;;;;;;12.60;11.30;;;21.60;99.90;;;;;;4914876;29;20464;-70
2023/06/22 00:16:27;;;;;;;10.23;9.40;;;21.60;99.90;;;;;;4924106;29;20441;-70
2023/06/22 00:18:53;;;;;;;12.43;11.33;;;21.50;99.90;;;;;;4916144;29;20488;-70
2023/06/22 00:21:20;;;;;;;12.03;10.83;;;21.50;99.90;;;;;;4916728;29;20246;-70
2023/06/22 00:23:46;;;;;;;12.70;11.60;;;21.40;99.90;;;;;;4922654;29;20177;-70
2023/06/22 00:26:12;;;;;;;12.23;11.23;;;21.50;99.90;;;;;;4923033;29;20449;-70
2023/06/22 00:28:37;;;;;;;11.30;10.30;;;21.50;99.90;;;;;;4920516;29;20500;-70
2023/06/22 00:31:03;;;;;;;15.03;11.17;;;21.40;99.90;;;;;;4917224;29;20202;-70
2023/06/22 00:33:28;;;;;;;11.37;10.37;;;21.40;99.90;;;;;;4915849;29;20178;-70
2023/06/22 00:35:54;;;;;;;9.57;8.63;;;21.50;99.90;;;;;;4921388;29;20253;-70
2023/06/22 00:38:20;;;;;;;12.20;11.13;;;21.30;99.90;;;;;;4916434;29;20631;-70
2023/06/22 00:40:46;;;;;;;14.20;12.00;;;21.20;99.90;;;;;;4914453;29;20579;-70
2023/06/22 00:43:11;;;;;;;11.20;9.67;;;21.10;99.90;;;;;;4912314;29;20434;-70
2023/06/22 00:45:37;;;;;;;10.87;9.80;;;21.20;99.90;;;;;;4920238;29;20174;-67
2023/06/22 00:48:03;;;;;;;11.47;10.50;;;21.20;99.90;;;;;;4929765;29;20181;-67
2023/06/22 00:50:33;;;;;;;13.00;11.80;;;21.30;99.90;;;;;;4920150;29;20469;-67
2023/06/22 00:53:09;;;;;;;13.67;12.10;;;21.30;99.90;;;;;;4914528;29;20182;-67
2023/06/22 00:55:51;;;;;;;13.07;11.23;;;21.30;99.90;;;;;;4916175;29;20470;-67
2023/06/22 00:58:21;;;;;;;12.20;10.80;;;21.30;99.90;;;;;;4913084;29;20449;-67
2023/06/22 01:00:47;;;;;;;11.60;10.60;;;21.30;99.90;;;;;;4918657;29;20453;-67
2023/06/22 01:03:12;;;;;;;12.47;11.17;;;21.20;99.90;;;;;;4920110;29;20936;-67
2023/06/22 01:05:39;;;;;;;12.70;11.57;;;21.20;99.90;;;;;;4914263;29;20210;-70
2023/06/22 01:08:37;;;;;;;11.10;10.10;;;21.20;99.90;;;;;;4916679;29;20596;-70
2023/06/22 01:11:28;;;;;;;13.97;12.37;;;21.00;99.90;;;;;;4928614;29;20480;-70
2023/06/22 01:14:15;;;;;;;12.03;10.73;;;20.90;99.90;;;;;;4923867;29;20461;-67
2023/06/22 01:16:43;;;;;;;11.90;10.70;;;20.90;99.90;;;;;;4919803;29;20525;-68
2023/06/22 01:19:17;;;;;;;11.43;10.43;;;20.90;99.90;;;;;;4916651;29;20560;-68
2023/06/22 01:21:45;;;;;;;11.97;10.87;;;20.80;99.90;;;;;;4914337;29;20493;-68
2023/06/22 01:24:32;;;;;;;13.03;11.20;;;20.60;99.90;;;;;;4926605;29;20453;-68
2023/06/22 01:27:32;;;;;;;11.80;10.70;;;20.70;99.90;;;;;;4915222;29;20449;-68
2023/06/22 01:30:00;;;;;;;11.30;10.30;;;20.70;99.90;;;;;;4915654;29;20453;-68
2023/06/22 01:32:34;;;;;;;12.50;11.20;;;20.60;99.90;;;;;;4922584;29;20461;-68
2023/06/22 01:35:03;;;;;;;12.20;11.20;;;20.40;99.90;;;;;;4920057;29;20465;-68
2023/06/22 01:37:32;;;;;;;11.83;10.80;;;20.40;99.90;;;;;;4926077;29;20446;-68
2023/06/22 01:39:58;;;;;;;11.73;10.63;;;20.30;99.90;;;;;;4926764;29;20568;-68
2023/06/22 01:42:25;;;;;;;12.87;11.70;;;20.30;99.90;;;;;;4926770;29;20974;-68
2023/06/22 01:44:52;;;;;;;11.20;10.13;;;20.40;99.90;;;;;;4913190;29;20944;-68
2023/06/22 01:47:18;;;;;;;11.53;10.33;;;20.30;99.90;;;;;;4924591;29;20968;-68
2023/06/22 01:49:45;;;;;;;11.87;10.80;;;20.30;99.90;;;;;;4922434;29;20469;-68
2023/06/22 01:52:11;;;;;;;14.93;11.30;;;20.20;99.90;;;;;;4913393;29;20209;-68
2023/06/22 01:54:39;;;;;;;12.40;11.30;;;20.10;99.90;;;;;;4918284;29;20958;-68
2023/06/22 01:57:05;;;;;;;12.50;10.90;;;20.10;99.90;;;;;;4913242;29;20273;-68
2023/06/22 01:59:56;;;;;;;15.20;10.50;;;20.10;99.90;;;;;;4922305;29;20573;-68
2023/06/22 02:02:26;;;;;;;10.00;9.00;;;20.20;99.90;;;;;;4918398;29;20201;-68
2023/06/22 02:04:59;;;;;;;12.40;11.13;;;20.30;99.90;;;;;;4915165;29;20438;-68
2023/06/22 02:07:29;;;;;;;11.37;10.37;;;20.20;99.90;;;;;;4919116;29;20525;-68
2023/06/22 02:09:57;;;;;;;12.50;11.30;;;20.30;99.90;;;;;;4931063;29;20445;-68
2023/06/22 02:12:24;;;;;;;13.60;11.80;;;20.20;99.90;;;;;;4925315;29;20510;-68
2023/06/22 02:14:51;;;;;;;10.70;9.80;;;20.20;99.90;;;;;;4920628;29;20457;-68
2023/06/22 02:17:18;;;;;;;11.70;10.50;;;20.10;99.90;;;;;;4924199;29;20528;-68
2023/06/22 02:19:44;;;;;;;12.30;11.17;;;20.00;99.90;;;;;;4930449;29;20473;-68
2023/06/22 02:22:09;;;;;;;12.27;11.17;;;20.00;99.90;;;;;;4927262;29;20838;-68
2023/06/22 02:24:35;;;;;;;11.93;10.67;;;20.00;99.90;;;;;;4924020;29;20190;-68
2023/06/22 02:27:01;;;;;;;11.10;10.10;;;20.00;99.90;;;;;;4923016;29;20174;-68
2023/06/22 02:29:27;;;;;;;12.20;11.20;;;19.90;99.90;;;;;;4924047;29;20191;-68
2023/06/22 02:31:54;;;;;;;12.43;11.07;;;19.80;99.90;;;;;;4927895;29;20488;-68
2023/06/22 02:34:20;;;;;;;12.70;11.50;;;19.70;99.90;;;;;;4914668;29;20529;-68
2023/06/22 02:36:50;;;;;;;12.50;11.50;;;19.90;99.90;;;;;;4927063;29;20441;-68
2023/06/22 02:39:24;;;;;;;10.90;10.00;;;19.90;99.90;;;;;;4925313;29;20512;-68
2023/06/22 02:41:51;;;;;;;11.17;10.17;;;19.90;99.90;;;;;;4922757;29;20486;-68
2023/06/22 02:44:17;;;;;;;11.03;10.03;;;19.70;99.90;;;;;;4921594;29;20434;-68
2023/06/22 02:46:43;;;;;;;11.70;10.67;;;19.70;99.90;;;;;;4915578;28;20939;-68
2023/06/22 02:49:09;;;;;;;13.80;12.67;;;19.60;99.90;;;;;;4917489;29;20488;-68
2023/06/22 02:51:35;;;;;;;13.43;11.30;;;19.60;99.90;;;;;;4927106;29;20221;-68
2023/06/22 02:54:01;;;;;;;13.77;12.50;;;19.70;99.90;;;;;;4916752;29;20785;-68
2023/06/22 02:56:28;;;;;;;11.93;10.83;;;19.80;99.90;;;;;;4915530;29;20625;-68
2023/06/22 02:58:53;;;;;;;13.17;12.00;;;19.80;99.90;;;;;;4908618;29;20198;-68
2023/06/22 03:01:23;;;;;;;12.10;11.00;;;19.70;99.90;;;;;;4922998;29;20461;-68
2023/06/22 03:03:49;;;;;;;13.17;11.33;;;19.80;99.90;;;;;;4910445;28;20190;-68
2023/06/22 03:06:15;;;;;;;14.90;13.40;;;19.70;99.90;;;;;;4923786;29;20943;-68
2023/06/22 03:08:41;;;;;;;13.10;11.80;;;19.70;99.90;;;;;;4915018;29;20556;-68
2023/06/22 03:11:07;;;;;;;13.53;12.33;;;19.70;99.90;;;;;;4916439;29;20213;-68
2023/06/22 03:13:33;;;;;;;12.47;11.30;;;19.70;99.90;;;;;;4915658;29;20449;-68
2023/06/22 03:15:59;;;;;;;12.30;11.10;;;19.70;99.90;;;;;;4923383;29;20448;-68
2023/06/22 03:18:24;;;;;;;15.40;12.00;;;19.70;99.90;;;;;;4918523;29;20179;-68
2023/06/22 03:20:50;;;;;;;12.33;10.97;;;19.60;99.90;;;;;;4924466;29;20206;-68
2023/06/22 03:23:15;;;;;;;15.27;11.97;;;19.60;99.90;;;;;;4926011;29;20185;-68
2023/06/22 03:25:41;;;;;;;14.27;12.87;;;19.60;99.90;;;;;;4922168;29;20174;-67
2023/06/22 03:28:07;;;;;;;14.50;13.17;;;19.60;99.90;;;;;;4918472;29;20174;-68
2023/06/22 03:30:32;;;;;;;14.93;13.63;;;19.70;99.90;;;;;;4922650;29;20526;-68
2023/06/22 03:32:58;;;;;;;13.73;12.50;;;19.60;99.90;;;;;;4912541;29;20652;-68
2023/06/22 03:35:23;;;;;;;12.87;11.63;;;19.70;99.90;;;;;;4915328;29;20189;-68
2023/06/22 03:37:49;;;;;;;13.40;12.13;;;19.70;99.90;;;;;;4925012;29;20174;-68
2023/06/22 03:40:14;;;;;;;13.67;12.20;;;19.70;99.90;;;;;;4918637;29;20211;-68
2023/06/22 03:42:40;;;;;;;13.70;12.40;;;19.70;99.90;;;;;;4914518;29;20241;-68
2023/06/22 03:45:06;;;;;;;14.20;12.70;;;19.80;99.90;;;;;;4915080;29;20187;-68
2023/06/22 03:47:33;;;;;;;15.57;13.97;;;19.80;99.90;;;;;;4921546;29;20237;-69
2023/06/22 03:49:58;;;;;;;12.27;11.10;;;19.80;99.90;;;;;;4924048;29;20520;-68
2023/06/22 03:52:25;;;;;;;12.27;11.17;;;19.80;99.90;;;;;;4926998;29;20529;-68
2023/06/22 03:54:50;;;;;;;12.67;11.57;;;20.10;99.90;;;;;;4916595;29;20191;-68
2023/06/22 03:57:16;;;;;;;13.07;11.97;;;19.80;99.90;;;;;;4912708;29;20882;-68
2023/06/22 03:59:41;;;;;;;13.20;11.90;;;19.80;99.90;;;;;;4911914;29;20224;-68
2023/06/22 04:02:07;;;;;;;14.33;13.03;;;19.70;99.90;;;;;;4914622;29;20198;-68
2023/06/22 04:04:35;;;;;;;15.07;13.60;;;19.70;99.90;;;;;;4932266;29;20182;-68
2023/06/22 04:07:00;;;;;;;14.87;13.13;;;19.80;99.90;;;;;;4921918;29;20268;-68
2023/06/22 04:09:26;;;;;;;15.37;11.10;;;20.00;99.90;;;;;;4915713;29;20471;-68
2023/06/22 04:11:52;;;;;;;14.07;12.73;;;20.10;99.90;;;;;;4913795;29;20694;-68
2023/06/22 04:14:17;;;;;;;12.40;11.20;;;20.10;99.90;;;;;;4909904;29;20189;-68
2023/06/22 04:16:43;;;;;;;13.47;12.27;;;20.10;99.90;;;;;;4914425;29;20262;-68
2023/06/22 04:19:13;;;;;;;17.40;15.83;;;20.20;99.90;;;;;;4921005;29;20215;-69
2023/06/22 04:21:39;;;;;;;13.60;12.33;;;20.20;99.90;;;;;;4922433;29;20222;-68
2023/06/22 04:24:05;;;;;;;13.60;12.23;;;20.20;99.90;;;;;;4926156;29;20878;-69
2023/06/22 04:26:30;;;;;;;13.10;12.10;;;20.30;99.90;;;;;;4940436;29;20190;-68
2023/06/22 04:28:56;;;;;;;14.13;12.00;;;20.50;99.90;;;;;;4935754;29;20189;-68
2023/06/22 04:31:24;;;;;;;13.40;12.30;;;20.60;99.90;;;;;;4921107;29;20205;-68
2023/06/22 04:33:51;;;;;;;12.90;11.63;;;20.70;99.90;;;;;;4927632;29;20246;-68
2023/06/22 04:36:16;;;;;;;14.30;12.90;;;20.80;99.90;;;;;;4919939;29;20482;-68
2023/06/22 04:38:42;;;;;;;13.47;12.30;;;20.90;99.90;;;;;;4925037;29;20987;-68
2023/06/22 04:41:09;;;;;;;13.60;12.27;;;20.90;99.90;;;;;;4920414;29;20292;-68
2023/06/22 04:43:34;;;;;;;22.07;11.63;;;21.00;99.90;;;;;;4923698;29;20190;-68
2023/06/22 04:46:03;;;;;;;12.60;11.50;;;21.10;99.90;;;;;;4925768;29;20816;-68
2023/06/22 04:48:32;;;;;;;13.10;11.67;;;21.20;99.90;;;;;;4927304;29;20612;-68
2023/06/22 04:51:02;;;;;;;14.10;12.73;;;21.30;99.90;;;;;;4928951;29;20465;-68
2023/06/22 04:53:29;;;;;;;11.73;10.50;;;21.30;99.90;;;;;;4928954;29;20464;-68
2023/06/22 04:55:55;;;;;;;12.33;11.33;;;21.40;99.90;;;;;;4919396;29;20454;-68
2023/06/22 04:58:21;;;;;;;13.63;12.43;;;21.40;99.90;;;;;;4934293;29;20426;-68
2023/06/22 05:00:47;;;;;;;15.10;13.70;;;21.40;99.90;;;;;;4916153;29;20206;-68
2023/06/22 05:03:12;;;;;;;13.90;12.60;;;21.50;99.90;;;;;;4909147;29;20947;-68
2023/06/22 05:05:38;;;;;;;13.63;12.33;;;21.60;99.90;;;;;;4925946;29;20182;-68
2023/06/22 05:08:06;;;;;;;13.93;12.60;;;21.80;99.90;;;;;;4923180;29;20178;-68
2023/06/22 05:10:33;;;;;;;13.50;12.20;;;21.90;99.90;;;;;;4937626;23;20251;-70
2023/06/22 05:12:58;;;;;;;13.80;12.50;;;22.00;99.90;;;;;;4976084;28;20447;-69
2023/06/22 05:15:27;;;;;;;13.00;11.90;;;22.20;99.90;;;;;;4971745;28;20444;-69
2023/06/22 05:17:53;;;;;;;13.57;12.30;;;22.40;99.90;;;;;;4977069;28;20223;-69
2023/06/22 05:20:19;;;;;;;14.03;12.63;;;22.50;99.90;;;;;;4983395;28;20500;-69
2023/06/22 05:22:44;;;;;;;13.83;12.43;;;22.70;99.90;;;;;;4964159;28;20657;-70
2023/06/22 05:25:10;;;;;;;12.73;11.43;;;22.80;99.90;;;;;;4963077;28;20249;-68
2023/06/22 05:27:39;;;;;;;14.67;12.40;;;22.90;99.90;;;;;;4965831;28;20626;-69
2023/06/22 05:30:08;;;;;;;12.93;11.70;;;23.00;99.90;;;;;;4954102;28;20445;-69
2023/06/22 05:32:34;;;;;;;12.80;11.57;;;23.10;99.90;;;;;;4952715;28;20469;-68
2023/06/22 05:35:00;;;;;;;16.03;12.23;;;23.20;99.90;;;;;;4954229;28;20523;-70
2023/06/22 05:37:26;;;;;;;13.60;12.30;;;23.40;99.90;;;;;;4965645;28;20900;-69
2023/06/22 05:39:51;;;;;;;13.60;12.40;;;23.60;99.90;;;;;;4963748;28;20211;-69
2023/06/22 05:42:17;;;;;;;12.23;11.13;;;23.60;99.90;;;;;;4966700;28;20266;-69
2023/06/22 05:44:43;;;;;;;12.33;10.80;;;23.70;99.90;;;;;;4963676;28;20173;-69
2023/06/22 05:47:08;;;;;;;13.80;12.40;;;23.90;99.90;;;;;;4954851;28;20185;-69
2023/06/22 05:49:34;;;;;;;13.70;11.47;;;24.00;99.90;;;;;;4954054;28;20654;-69
2023/06/22 05:51:59;;;;;;;12.33;11.23;;;23.90;99.90;;;;;;4952566;28;20231;-69
2023/06/22 05:54:27;;;;;;;13.27;12.07;;;24.00;99.90;;;;;;4958994;28;20533;-69
2023/06/22 05:56:52;;;;;;;12.07;11.07;;;24.20;99.90;;;;;;4958927;28;20443;-69
2023/06/22 05:59:18;;;;;;;11.07;10.10;;;24.20;99.90;;;;;;4952903;28;20464;-69
2023/06/22 06:01:43;;;;;;;12.27;11.13;;;24.20;99.90;;;;;;4958254;28;20196;-69
2023/06/22 06:04:09;;;;;;;12.20;10.80;;;24.20;99.90;;;;;;4952786;28;20182;-68
2023/06/22 06:06:36;;;;;;;10.30;9.40;;;24.10;99.90;;;;;;4963396;28;20191;-69
2023/06/22 06:09:03;;;;;;;14.87;12.20;;;24.00;99.90;;;;;;4965826;28;20549;-69
2023/06/22 06:11:29;;;;;;;14.33;11.67;;;23.90;99.90;;;;;;4956856;28;20510;-69
2023/06/22 06:13:55;;;;;;;12.67;11.47;;;23.90;99.90;;;;;;4954334;28;20853;-69
2023/06/22 06:16:20;;;;;;;10.43;9.60;;;23.80;99.90;;;;;;4950761;28;20560;-70
2023/06/22 06:18:48;;;;;;;11.70;10.60;;;23.90;99.90;;;;;;4961235;28;20307;-69
2023/06/22 06:21:13;;;;;;;12.07;10.97;;;24.10;99.90;;;;;;4969498;28;20227;-69
2023/06/22 06:23:39;;;;;;;11.67;10.60;;;24.30;99.90;;;;;;4962293;28;20444;-70
2023/06/22 06:26:06;;;;;;;11.50;10.30;;;24.40;99.90;;;;;;4963599;28;20189;-69
2023/06/22 06:28:32;;;;;;;13.53;10.30;;;24.50;99.90;;;;;;4953310;28;20189;-69
2023/06/22 06:30:58;;;;;;;15.83;11.57;;;24.70;99.90;;;;;;4958610;28;20490;-70
2023/06/22 06:33:24;;;;;;;11.33;10.03;;;25.00;99.90;;;;;;4948016;28;20181;-70
2023/06/22 06:35:49;;;;;;;12.17;10.87;;;25.20;99.90;;;;;;4957998;28;20187;-69
2023/06/22 06:38:15;;;;;;;10.27;9.20;;;25.30;99.90;;;;;;4953289;28;20452;-70
2023/06/22 06:40:41;;;;;;;14.70;10.67;;;25.50;99.90;;;;;;4948902;28;20224;-70
2023/06/22 06:43:06;;;;;;;10.33;9.23;;;25.70;99.90;;;;;;4951880;28;20204;-70
2023/06/22 06:45:34;;;;;;;10.87;9.80;;;25.80;99.90;;;;;;4953961;28;20176;-73
2023/06/22 06:47:59;;;;;;;10.10;9.10;;;26.00;99.90;;;;;;4950194;28;20192;-72
2023/06/22 06:50:25;;;;;;;9.80;9.00;;;26.20;99.90;;;;;;4952902;28;20436;-73
2023/06/22 06:52:51;;;;;;;10.30;8.70;;;26.20;99.90;;;;;;4950928;28;20386;-73
2023/06/22 06:55:17;;;;;;;12.53;9.97;;;26.50;99.90;;;;;;4950743;28;20192;-73
2023/06/22 06:57:43;;;;;;;10.03;8.93;;;26.60;99.90;;;;;;4956874;28;20180;-73
2023/06/22 07:00:11;;;;;;;10.40;9.40;;;26.90;99.90;;;;;;4958063;28;20467;-73
2023/06/22 07:02:42;;;;;;;10.00;8.90;;;27.10;99.90;;;;;;4951705;28;20176;-73
2023/06/22 07:05:08;;;;;;;9.23;8.30;;;27.30;99.90;;;;;;4962303;28;20447;-74
2023/06/22 07:07:34;;;;;;;9.27;8.33;;;27.50;99.90;;;;;;4952408;28;20444;-74
2023/06/22 07:10:00;;;;;;;11.43;8.80;;;27.60;99.90;;;;;;4947153;28;20805;-74
2023/06/22 07:12:26;;;;;;;10.17;8.30;;;27.60;99.90;;;;;;4950066;28;20228;-74
2023/06/22 07:14:52;;;;;;;9.37;8.10;;;27.70;99.90;;;;;;4957418;28;20502;-73
2023/06/22 07:17:18;;;;;;;9.40;8.53;;;27.90;99.90;;;;;;4953060;28;20180;-74
2023/06/22 07:19:43;;;;;;;10.83;8.63;;;28.20;99.90;;;;;;4950564;28;20487;-74
2023/06/22 07:22:09;;;;;;;9.47;8.57;;;28.30;99.90;;;;;;4949985;28;20255;-74
2023/06/22 07:24:34;;;;;;;9.40;8.40;;;28.40;99.90;;;;;;4954819;28;20267;-74
2023/06/22 07:27:00;;;;;;;9.13;8.30;;;28.50;99.90;;;;;;4955128;28;20181;-74
2023/06/22 07:29:26;;;;;;;8.57;7.70;;;28.60;99.90;;;;;;4952432;28;20608;-74
2023/06/22 07:31:52;;;;;;;10.30;8.20;;;28.70;99.90;;;;;;4957194;28;20202;-74
2023/06/22 07:34:18;;;;;;;9.23;6.97;;;28.60;99.90;;;;;;4958801;28;20539;-74
2023/06/22 07:36:44;;;;;;;7.13;6.43;;;28.80;99.90;;;;;;4950335;28;20534;-74
2023/06/22 07:39:10;;;;;;;6.67;6.17;;;28.70;99.90;;;;;;4963866;28;20215;-74
2023/06/22 07:41:36;;;;;;;9.97;7.03;;;28.80;99.90;;;;;;4951078;28;20460;-74
2023/06/22 07:44:03;;;;;;;7.00;6.30;;;28.90;99.90;;;;;;4949981;28;20184;-74
2023/06/22 07:46:30;;;;;;;6.50;5.90;;;29.00;99.90;;;;;;4948014;28;20216;-74
2023/06/22 07:48:56;;;;;;;8.23;7.57;;;29.10;99.90;;;;;;4956361;28;20446;-74
2023/06/22 07:51:21;;;;;;;8.83;6.70;;;29.10;99.90;;;;;;4953024;28;20467;-74
2023/06/22 07:53:47;;;;;;;6.33;5.80;;;29.30;99.90;;;;;;4943201;28;20439;-75
2023/06/22 07:56:13;;;;;;;7.73;7.03;;;29.40;99.90;;;;;;4953880;28;20181;-74
2023/06/22 07:58:39;;;;;;;6.53;5.73;;;29.60;99.90;;;;;;4954092;28;20801;-74
2023/06/22 08:01:05;;;;;;;7.87;7.07;;;29.60;99.90;;;;;;4951612;28;20460;-75
2023/06/22 08:03:31;;;;;;;7.53;6.83;;;29.70;99.90;;;;;;4954304;28;20188;-75
2023/06/22 08:05:57;;;;;;;7.43;5.70;;;30.10;99.90;;;;;;4955408;28;20440;-74
2023/06/22 08:08:22;;;;;;;8.77;7.97;;;30.40;99.90;;;;;;4961586;28;20181;-74
2023/06/22 08:10:48;;;;;;;7.93;6.77;;;30.90;99.90;;;;;;4961377;28;20223;-74
2023/06/22 08:13:14;;;;;;;7.30;6.23;;;31.30;99.90;;;;;;4955857;28;20193;-74
2023/06/22 08:15:39;;;;;;;8.83;6.63;;;31.70;98.50;;;;;;4957429;28;20172;-75
2023/06/22 08:18:05;;;;;;;10.53;6.47;;;31.90;97.60;;;;;;4962856;28;20180;-75
2023/06/22 08:20:31;;;;;;;10.63;7.40;;;31.90;97.10;;;;;;4955310;28;20212;-75
2023/06/22 08:22:58;;;;;;;9.40;7.43;;;30.80;96.80;;;;;;4967083;28;20181;-75
2023/06/22 08:25:23;;;;;;;9.77;7.40;;;30.60;98.10;;;;;;4959947;28;20428;-74
2023/06/22 08:27:49;;;;;;;9.20;7.30;;;30.20;98.80;;;;;;4955470;28;20851;-75
2023/06/22 08:30:15;;;;;;;10.00;7.83;;;30.10;98.60;;;;;;4967467;28;20248;-75
2023/06/22 08:32:41;;;;;;;9.57;7.27;;;30.10;99.90;;;;;;4963595;28;20184;-75
2023/06/22 08:35:09;;;;;;;8.23;7.37;;;29.90;99.90;;;;;;4964935;28;20447;-75
2023/06/22 08:37:35;;;;;;;7.57;6.83;;;29.80;99.90;;;;;;4961743;28;20188;-75
2023/06/22 08:40:09;;;;;;;7.70;6.87;;;30.10;99.90;;;;;;4954251;28;20546;-75
2023/06/22 08:42:38;;;;;;;8.43;6.63;;;29.90;99.90;;;;;;4954004;28;20460;-75
2023/06/22 08:45:04;;;;;;;14.30;7.93;;;30.40;99.70;;;;;;4953534;28;20432;-74
2023/06/22 08:47:29;;;;;;;9.30;8.07;;;30.30;99.10;;;;;;4957628;28;20463;-74
2023/06/22 08:49:55;;;;;;;7.20;6.20;;;30.10;99.90;;;;;;4956193;28;20436;-75
2023/06/22 08:52:20;;;;;;;8.47;7.63;;;30.00;99.90;;;;;;4956405;28;20666;-75
2023/06/22 08:54:47;;;;;;;9.70;6.63;;;30.40;99.90;;;;;;4962496;28;20223;-74
2023/06/22 08:57:12;;;;;;;8.37;7.50;;;31.00;98.70;;;;;;4951224;28;20607;-73
2023/06/22 08:59:38;;;;;;;9.43;7.70;;;30.50;98.90;;;;;;4954037;28;20519;-73
2023/06/22 09:02:04;;;;;;;9.50;6.57;;;30.20;99.20;;;;;;4958835;28;20200;-73
2023/06/22 09:04:29;;;;;;;8.63;7.83;;;30.40;98.90;;;;;;4968203;28;20188;-75
2023/06/22 09:06:55;;;;;;;13.80;8.67;;;30.20;99.90;;;;;;4948450;28;20195;-74
2023/06/22 09:09:21;;;;;;;8.23;7.43;;;29.60;99.90;;;;;;4950552;28;20263;-74
2023/06/22 09:11:47;;;;;;;9.03;8.10;;;29.60;99.90;;;;;;4950967;28;20220;-73
2023/06/22 09:14:12;;;;;;;8.97;7.30;;;29.80;99.90;;;;;;4953823;28;20487;-73
2023/06/22 09:16:38;;;;;;;10.53;9.53;;;30.30;99.90;;;;;;4954870;28;20276;-74
2023/06/22 09:19:04;;;;;;;9.97;7.50;;;30.60;99.70;;;;;;4950142;28;20208;-74
2023/06/22 09:21:29;;;;;;;12.87;7.57;;;31.20;99.90;;;;;;4953994;28;20460;-74
2023/06/22 09:23:55;;;;;;;8.57;7.80;;;31.40;97.10;;;;;;4964958;28;20169;-74
2023/06/22 09:26:22;;;;;;;7.73;7.00;;;31.70;96.80;;;;;;4957344;28;20200;-73
2023/06/22 09:28:48;;;;;;;8.20;7.40;;;32.10;96.40;;;;;;4954070;28;20276;-73
2023/06/22 09:31:13;;;;;;;8.40;7.03;;;32.20;95.20;;;;;;4955219;29;21017;-73
2023/06/22 09:33:40;;;;;;;12.70;8.23;;;32.60;94.90;;;;;;4958067;28;20646;-73
2023/06/22 09:36:07;;;;;;;11.60;8.30;;;32.80;94.40;;;;;;4963684;28;20260;-73
2023/06/22 09:38:35;;;;;;;9.10;7.77;;;33.10;93.40;;;;;;4956437;28;20448;-73
2023/06/22 09:41:00;;;;;;;9.33;7.90;;;33.40;92.70;;;;;;4954313;28;20491;-74
2023/06/22 09:43:26;;;;;;;9.27;7.90;;;32.80;92.60;;;;;;4953014;28;21009;-73
2023/06/22 09:45:52;;;;;;;18.97;9.23;;;32.30;93.20;;;;;;4955137;28;20263;-73
2023/06/22 09:48:17;;;;;;;9.27;7.60;;;32.50;93.30;;;;;;4962454;28;20455;-73
2023/06/22 09:50:43;;;;;;;8.90;7.80;;;32.70;92.70;;;;;;4949591;28;20679;-74
2023/06/22 09:53:08;;;;;;;10.00;8.70;;;32.90;92.20;;;;;;4954696;28;20197;-74
2023/06/22 09:55:34;;;;;;;10.87;7.70;;;32.60;92.80;;;;;;4952442;29;20197;-74
2023/06/22 09:57:59;;;;;;;9.80;8.70;;;33.10;92.20;;;;;;4953307;28;20658;-73
2023/06/22 10:00:26;;;;;;;8.73;7.70;;;33.20;91.50;;;;;;4949640;28;20205;-74
2023/06/22 10:02:52;;;;;;;9.60;7.50;;;33.20;91.90;;;;;;4952429;28;20177;-74
2023/06/22 10:05:17;;;;;;;10.03;8.73;;;33.80;91.30;;;;;;4951687;28;20453;-74
2023/06/22 10:07:43;;;;;;;11.43;9.40;;;34.20;90.00;;;;;;4948545;28;20273;-67
2023/06/22 10:10:10;;;;;;;10.83;8.50;;;34.40;89.10;;;;;;4945619;28;20303;-65
2023/06/22 10:12:36;;;;;;;10.20;8.00;;;33.40;88.80;;;;;;4949300;28;20480;-65
2023/06/22 10:15:02;;;;;;;11.60;8.37;;;33.00;90.50;;;;;;4945477;28;20469;-66
2023/06/22 10:17:28;;;;;;;10.50;8.17;;;33.00;90.40;;;;;;4953780;28;20185;-66
2023/06/22 10:19:53;;;;;;;14.70;8.40;;;33.20;90.20;;;;;;4946954;28;20281;-68
2023/06/22 10:22:19;;;;;;;10.50;8.30;;;32.90;90.40;;;;;;4950586;28;20204;-68
2023/06/22 10:24:45;;;;;;;12.43;8.37;;;33.60;89.60;;;;;;4945075;28;20659;-68
2023/06/22 10:27:11;;;;;;;9.53;7.20;;;33.60;88.90;;;;;;4952057;28;20654;-69
2023/06/22 10:29:37;;;;;;;9.90;7.33;;;33.60;89.80;;;;;;4957025;28;20514;-69
2023/06/22 10:32:03;;;;;;;9.40;8.30;;;34.00;86.50;;;;;;4963888;28;20255;-71
2023/06/22 10:34:29;;;;;;;17.20;9.47;;;34.90;84.60;;;;;;4953270;28;20850;-71
2023/06/22 10:36:54;;;;;;;8.33;7.30;;;34.90;83.90;;;;;;4958068;28;20193;-72
2023/06/22 10:39:20;;;;;;;9.97;8.67;;;35.60;83.20;;;;;;4948735;28;20577;-70
2023/06/22 10:41:45;;;;;;;10.10;9.07;;;37.00;80.00;;;;;;4941560;28;20201;-71
2023/06/22 10:44:12;;;;;;;8.60;7.77;;;38.30;76.30;;;;;;4942862;28;20252;-70
2023/06/22 10:46:37;;;;;;;10.37;8.20;;;38.00;72.90;;;;;;4950332;28;20181;-71
2023/06/22 10:49:03;;;;;;;9.60;7.57;;;38.00;71.50;;;;;;4946689;28;20463;-71
2023/06/22 10:51:29;;;;;;;11.33;8.90;;;37.30;70.50;;;;;;4939014;28;20312;-70
2023/06/22 10:53:54;;;;;;;9.13;8.00;;;37.10;71.10;;;;;;4949477;28;20859;-71
2023/06/22 10:56:20;;;;;;;9.80;8.73;;;36.50;71.60;;;;;;4946630;28;20177;-71
2023/06/22 10:58:46;;;;;;;10.17;8.83;;;35.00;74.30;;;;;;4951067;28;20192;-70
2023/06/22 11:01:11;;;;;;;11.83;8.50;;;34.90;75.90;;;;;;4948740;28;20204;-70
2023/06/22 11:03:37;;;;;;;14.70;8.07;;;34.70;77.70;;;;;;4947519;28;20181;-69
2023/06/22 11:06:03;;;;;;;8.90;7.90;;;34.50;77.10;;;;;;4948115;28;20248;-69
2023/06/22 11:08:28;;;;;;;10.50;7.80;;;34.80;76.90;;;;;;4942492;28;20651;-69
2023/06/22 11:10:54;;;;;;;11.47;9.00;;;34.80;76.40;;;;;;4941113;28;20208;-69
2023/06/22 11:13:19;;;;;;;9.33;8.43;;;34.70;77.00;;;;;;4949515;28;20236;-72
2023/06/22 11:15:45;;;;;;;8.73;7.83;;;34.10;77.40;;;;;;4942595;28;20248;-68
2023/06/22 11:18:10;;;;;;;15.33;8.60;;;33.60;79.10;;;;;;4948680;28;20189;-70
2023/06/22 11:20:38;;;;;;;10.50;9.50;;;33.80;79.40;;;;;;4946569;28;20698;-69
2023/06/22 11:23:05;;;;;;;11.03;8.00;;;33.60;80.30;;;;;;4939592;28;20530;-70
2023/06/22 11:25:31;;;;;;;14.27;9.20;;;33.50;80.50;;;;;;4942412;28;20437;-69
2023/06/22 11:27:56;;;;;;;10.87;8.93;;;33.50;81.50;;;;;;4946351;28;20503;-69
2023/06/22 11:30:22;;;;;;;9.97;7.93;;;33.60;81.00;;;;;;4942935;28;20181;-69
2023/06/22 11:32:48;;;;;;;10.80;9.17;;;33.80;80.90;;;;;;4947089;28;20204;-70
2023/06/22 11:35:14;;;;;;;12.90;8.63;;;34.20;80.70;;;;;;4952364;28;20997;-69
2023/06/22 11:37:39;;;;;;;8.57;7.70;;;34.40;78.30;;;;;;4945789;28;20193;-70
2023/06/22 11:40:08;;;;;;;10.50;7.80;;;35.10;77.70;;;;;;4941991;28;20291;-69
2023/06/22 11:42:34;;;;;;;10.53;8.77;;;35.50;76.00;;;;;;4951229;28;20208;-69
2023/06/22 11:45:00;;;;;;;8.70;7.87;;;35.30;75.20;;;;;;4943819;28;20508;-70
2023/06/22 11:47:25;;;;;;;12.27;9.27;;;35.80;75.50;;;;;;4951638;28;20194;-69
2023/06/22 11:49:51;;;;;;;14.03;9.30;;;36.20;73.70;;;;;;4957030;28;20188;-70
2023/06/22 11:52:17;;;;;;;12.10;8.80;;;36.40;73.00;;;;;;4949916;28;20268;-71
2023/06/22 11:54:43;;;;;;;12.47;9.03;;;36.40;72.10;;;;;;4950458;28;20180;-71
2023/06/22 11:57:09;;;;;;;12.97;8.67;;;35.40;72.60;;;;;;4950173;28;20456;-70
2023/06/22 11:59:34;;;;;;;10.03;9.07;;;35.20;74.10;;;;;;4948192;28;20604;-70
2023/06/22 12:02:00;;;;;;;9.50;8.60;;;35.20;74.90;;;;;;4951079;28;20634;-70
2023/06/22 12:04:25;;;;;;;8.20;7.30;;;35.00;74.80;;;;;;4944167;28;20186;-67
2023/06/22 12:06:51;;;;;;;12.33;8.67;;;34.60;76.70;;;;;;4962621;28;20263;-70
2023/06/22 12:09:16;;;;;;;14.13;9.13;;;33.90;79.50;;;;;;4947783;28;20192;-71
2023/06/22 12:11:42;;;;;;;10.93;8.70;;;34.00;79.40;;;;;;4955922;28;20295;-70
2023/06/22 12:14:07;;;;;;;11.67;9.30;;;33.70;80.70;;;;;;4949575;28;20197;-69
2023/06/22 12:16:33;;;;;;;11.27;9.20;;;32.90;84.10;;;;;;4942903;28;20189;-70
2023/06/22 12:18:59;;;;;;;12.23;8.73;;;33.10;85.20;;;;;;4951836;28;20588;-70
2023/06/22 12:21:24;;;;;;;8.47;7.60;;;33.50;83.90;;;;;;4952849;28;20208;-69
2023/06/22 12:23:50;;;;;;;10.17;8.70;;;33.60;83.80;;;;;;4946245;28;20208;-68
2023/06/22 12:26:16;;;;;;;10.73;9.50;;;33.70;84.50;;;;;;4951300;28;20196;-68
2023/06/22 12:28:41;;;;;;;11.20;9.60;;;33.60;84.60;;;;;;4951040;28;20181;-69
2023/06/22 12:31:07;;;;;;;14.50;9.33;;;33.30;86.40;;;;;;4952501;28;20452;-68